Startpagina
METAR-TAF:

METAR-TAF

Vliegvelden :

Aeropuerto de Málaga-Costa del Sol

Málaga, Spanje

breedte: 36-40N, lengte: 004-29W, hoogte: 16 m

Actueel weer

Dit bericht is 44 minuten geleden gemaakt, om 07:00 UTC
Wind 8 kt uit het westnoordwesten
Temperatuur 11°C
Vochtigheid 87%
Druk 1024 hPa
Zicht 10 km of meer
geen wolken onder 1500 m en geen cumulonimbus

METAR: LEMG 290700Z 30008KT CAVOK 11/09 Q1024 NOSIG

Tijdstip: 08:44 (07:44 UTC)

Verwachting

Dit bericht is 2 uur en het 44 minuten geleden gemaakt, om 05:00 UTC
Verwachting geldig van 29 om 06 UTC tot 30 om 06 UTC
Wind 7 kt uit het westnoordwesten
Zicht 10 km of meer
Weinig wolken op 3500 ft
Wijzigt naar
van 29 om 09 UTC tot 29 om 12 UTC
Wind 7 kt uit het zuidoosten
Wijzigt naar
van 29 om 18 UTC tot 29 om 20 UTC
Wind 6 kt uit het westnoordwesten

TAF: LEMG 290500Z 2906/3006 29007KT 9999 FEW035 TX20/2914Z TN09/2906Z BECMG 2909/2912 13007KT BECMG 2918/2920 29006KT

Waarnemingen en weersverwachtingen van meer dan 4000 vliegvelden (METAR en TAF).

De beschikbare stations zijn de gele en rode punten op de kaart.

Ga met uw muis naar het station om de naam te zien.

Klik dan om waarnemingen en weersverwachtingen te zien.

kaart wijzigen: klik op de groene knoppen met een zwart kruis om in te zoomen, op de groene knop met een streepje om uit te zoomen of op de groene pijlen voor aangrenzende kaarten.


METAR-TAF: